Terminal Aerodrome Forecast
Issued by NWS

Home | Current Version | Previous Version | Text Only | Print | Product List | Glossary On
Versions: 1 2 3 4 5 6 7 8 9 10 11 12 13
000
FTUS46 KPDT 111100
TAFYKM
TAF
KYKM 111120Z 1112/1212 29008KT P6SM SKC
     FM112000 14006KT P6SM SCT200
     FM120200 31008KT P6SM SCT150=

USA.gov is the U.S. government's official web portal to all federal, state and local government web resources and services.